Weather History for KC09 - September, 2013

Change the Weather History Date:

Friday, September 20, 2013

  Actual Average (KLOT) Record (KLOT)
Temperature  
Mean Temperature 64 °F 63 °F  
Max Temperature 75 °F 74 °F 89 °F (1998)
Min Temperature 54 °F 53 °F 40 °F (2006)
Degree Days  
Heating Degree Days 1 4  
Month to date heating degree days 36  
Since 1 July heating degree days 44  
Cooling Degree Days 0 2  
Month to date cooling degree days 77  
Year to date cooling degree days 830  
Growing Degree Days 14 (Base 50)    
Moisture  
Dew Point 62 °F    
Average Humidity 85    
Maximum Humidity 100    
Minimum Humidity 59    
Precipitation  
Precipitation 0.11 in 0.11 in 0.96 in (2009)
Month to date precipitation 2.18  
Year to date precipitation 30.00  
Sea Level Pressure  
Sea Level Pressure 29.84 in    
Wind  
Wind Speed 9 mph (West)    
Max Wind Speed 16 mph    
Max Gust Speed 21 mph    
Visibility 10 miles    
Events Rain , Thunderstorm    
T = Trace of Precipitation, MM = Missing Value Source: NWS Daily Summary

Daily Weather History Graph

Daily Weather History Graph

Search for Another Location

Airport or City:

Trip Planner

Search our weather history database for the weather conditions in past years. The results will help you decide how hot, cold, wet, or windy it might be!

Date:

Astronomy

Sep. 20, 2013 Rise Set
Actual Time 6:39 AM CDT 6:53 PM CDT
Civil Twilight 6:11 AM CDT 7:21 PM CDT
Nautical Twilight 5:39 AM CDT 7:53 PM CDT
Astronomical Twilight 5:06 AM CDT 8:26 PM CDT
Moon 7:25 PM CDT (9/20) 7:55 AM CDT (9/20)
Length of Visible Light 13h 09m
Length of Day
12h 14m
Full, 98% of the Moon is Illuminated
Sep 20
Full
Sep 26
Last Quarter
Oct 4
New
Oct 11
First Quarter
Oct 18
Full

Hourly Weather History & Observations

Time (CDT) Temp. Dew Point Humidity Pressure Visibility Wind Dir Wind Speed Gust Speed Precip Events Conditions
12:15 AM 72.1 °F 64.4 °F 77% 29.86 in 10.0 mi West 13.8 mph - N/A Thunderstorm Mostly Cloudy
12:35 AM 69.6 °F 69.3 °F 99% 29.87 in 5.0 mi West 11.5 mph 20.7 mph 0.10 in Rain , Thunderstorm Light Thunderstorms and Rain
12:55 AM 69.1 °F 69.1 °F 100% 29.87 in 10.0 mi West 11.5 mph - 0.10 in Thunderstorm Mostly Cloudy
1:15 AM 69.1 °F 69.1 °F 100% 29.85 in 10.0 mi West 10.4 mph - 0.01 in Rain Light Rain
1:35 AM 68.5 °F 68.5 °F 100% 29.85 in 10.0 mi WSW 5.8 mph - 0.01 in   Scattered Clouds
1:55 AM 68.0 °F 68.0 °F 100% 29.83 in 10.0 mi Calm Calm - 0.01 in   Clear
2:15 AM 68.0 °F 68.0 °F 100% 29.80 in 10.0 mi SSE 3.5 mph - N/A Rain Light Rain
2:35 AM 67.6 °F 67.6 °F 100% 29.77 in 10.0 mi SE 5.8 mph - N/A   Clear
2:55 AM 67.3 °F 67.3 °F 100% 29.81 in 10.0 mi SW 6.9 mph - N/A   Clear
3:15 AM 67.3 °F 67.3 °F 100% 29.82 in 10.0 mi SW 6.9 mph - N/A   Clear
3:35 AM 67.3 °F 67.3 °F 100% 29.83 in 10.0 mi WSW 5.8 mph - N/A   Scattered Clouds
3:55 AM 67.1 °F 67.1 °F 100% 29.82 in 10.0 mi SW 5.8 mph - N/A   Scattered Clouds
4:15 AM 66.7 °F 66.7 °F 100% 29.83 in 10.0 mi SSW 5.8 mph - N/A   Clear
4:35 AM 66.4 °F 66.4 °F 100% 29.83 in 10.0 mi SSW 4.6 mph - N/A   Scattered Clouds
4:55 AM 66.4 °F 66.4 °F 100% 29.84 in 10.0 mi SW 5.8 mph - N/A   Scattered Clouds
5:15 AM 66.6 °F 66.6 °F 100% 29.84 in 10.0 mi SW 6.9 mph - N/A   Mostly Cloudy
5:35 AM 66.4 °F 66.4 °F 100% 29.84 in 10.0 mi SSW 5.8 mph - N/A   Scattered Clouds
5:55 AM 67.1 °F 67.1 °F 100% 29.84 in 10.0 mi SSW 5.8 mph - N/A   Overcast
6:15 AM 67.1 °F 67.1 °F 100% 29.84 in 10.0 mi SW 6.9 mph - N/A   Mostly Cloudy
6:35 AM 67.1 °F 67.1 °F 100% 29.85 in 10.0 mi SW 8.1 mph - N/A   Mostly Cloudy
6:55 AM 67.1 °F 67.1 °F 100% 29.85 in 10.0 mi WSW 8.1 mph - N/A   Overcast
7:15 AM 67.3 °F 67.3 °F 100% 29.85 in 10.0 mi SW 6.9 mph - N/A   Mostly Cloudy
7:35 AM 67.8 °F 67.8 °F 100% 29.85 in 10.0 mi WSW 8.1 mph - N/A   Mostly Cloudy
7:55 AM 68.0 °F 68.0 °F 100% 29.85 in 10.0 mi WSW 6.9 mph - N/A   Overcast
8:15 AM 68.4 °F 68.4 °F 100% 29.84 in 7.0 mi WSW 8.1 mph - N/A   Overcast
8:35 AM 68.9 °F 68.9 °F 100% 29.84 in 10.0 mi WSW 8.1 mph - N/A   Overcast
8:55 AM 69.1 °F 69.1 °F 100% 29.84 in 10.0 mi WSW 5.8 mph - N/A   Overcast
9:15 AM 69.8 °F 69.8 °F 100% 29.85 in 10.0 mi WSW 8.1 mph - N/A   Overcast
9:35 AM 70.2 °F 69.6 °F 98% 29.85 in 10.0 mi WSW 11.5 mph - N/A   Overcast
9:55 AM 70.5 °F 69.1 °F 95% 29.85 in 10.0 mi West 10.4 mph - N/A   Overcast
10:15 AM 71.2 °F 68.5 °F 91% 29.85 in 10.0 mi West 11.5 mph 17.3 mph N/A   Overcast
10:35 AM 72.9 °F 67.5 °F 83% 29.85 in 10.0 mi WSW 12.7 mph - N/A   Mostly Cloudy
10:55 AM 72.3 °F 67.3 °F 84% 29.85 in 10.0 mi West 9.2 mph - N/A   Mostly Cloudy
11:15 AM 74.1 °F 66.6 °F 77% 29.84 in 10.0 mi West 10.4 mph - N/A   Mostly Cloudy
11:35 AM 74.3 °F 65.7 °F 74% 29.84 in 10.0 mi West 11.5 mph - N/A   Mostly Cloudy
11:55 AM 74.5 °F 65.1 °F 72% 29.84 in 10.0 mi West 10.4 mph - N/A   Scattered Clouds
12:15 PM 74.3 °F 63.7 °F 69% 29.84 in 10.0 mi West 10.4 mph - N/A   Clear
12:35 PM 74.3 °F 63.7 °F 69% 29.84 in 10.0 mi WSW 9.2 mph 17.3 mph N/A   Scattered Clouds
12:55 PM 74.1 °F 62.6 °F 67% 29.83 in 10.0 mi West 10.4 mph - N/A   Scattered Clouds
1:15 PM 74.8 °F 62.8 °F 66% 29.83 in 10.0 mi WSW 11.5 mph - N/A   Scattered Clouds
1:35 PM 73.4 °F 61.2 °F 65% 29.83 in 10.0 mi West 15.0 mph 18.4 mph N/A   Scattered Clouds
1:55 PM 72.9 °F 61.2 °F 67% 29.82 in 10.0 mi West 10.4 mph - N/A   Clear
2:15 PM 72.7 °F 60.4 °F 65% 29.82 in 10.0 mi WSW 13.8 mph - N/A   Clear
2:35 PM 73.4 °F 60.3 °F 63% 29.81 in 10.0 mi West 10.4 mph - N/A   Clear
2:55 PM 73.4 °F 58.3 °F 59% 29.81 in 10.0 mi West 11.5 mph - N/A   Clear
3:15 PM 73.6 °F 60.4 °F 63% 29.81 in 10.0 mi West 13.8 mph - N/A   Clear
3:35 PM 72.7 °F 57.4 °F 59% 29.81 in 10.0 mi West 16.1 mph - N/A   Clear
3:55 PM 72.0 °F 57.6 °F 60% 29.82 in 10.0 mi West 12.7 mph 18.4 mph N/A   Clear
4:15 PM 72.0 °F 57.4 °F 60% 29.81 in 7.0 mi West 15.0 mph - N/A   Scattered Clouds
4:35 PM 70.7 °F 55.8 °F 59% 29.82 in 10.0 mi West 15.0 mph 20.7 mph N/A   Scattered Clouds
4:55 PM 70.5 °F 56.5 °F 61% 29.82 in 10.0 mi WNW 10.4 mph 17.3 mph N/A   Scattered Clouds
5:15 PM 69.1 °F 54.3 °F 59% 29.82 in 10.0 mi West 9.2 mph - N/A   Clear
5:35 PM 68.9 °F 54.5 °F 60% 29.82 in 10.0 mi West 8.1 mph - N/A   Clear
5:55 PM 68.2 °F 54.5 °F 62% 29.82 in 10.0 mi West 10.4 mph 16.1 mph N/A   Clear
6:15 PM 67.5 °F 53.2 °F 60% 29.82 in 10.0 mi WNW 15.0 mph 19.6 mph N/A   Clear
6:35 PM 65.5 °F 52.9 °F 64% 29.83 in 10.0 mi NW 10.4 mph 16.1 mph N/A   Clear
6:55 PM 63.7 °F 52.9 °F 68% 29.84 in 10.0 mi NW 9.2 mph - N/A   Clear
7:15 PM 61.7 °F 52.3 °F 71% 29.84 in 10.0 mi WNW 5.8 mph - N/A   Clear
7:35 PM 59.7 °F 52.9 °F 78% 29.85 in 10.0 mi WNW 4.6 mph - N/A   Clear
7:55 PM 58.3 °F 52.9 °F 82% 29.84 in 10.0 mi WNW 5.8 mph - N/A   Clear
8:15 PM 59.4 °F 52.0 °F 77% 29.85 in 10.0 mi West 6.9 mph - N/A   Clear
8:35 PM 59.0 °F 52.0 °F 78% 29.85 in 10.0 mi West 5.8 mph - N/A   Clear
8:55 PM 58.5 °F 52.2 °F 80% 29.85 in 10.0 mi West 6.9 mph - N/A   Clear
9:15 PM 57.6 °F 52.2 °F 82% 29.85 in 10.0 mi West 5.8 mph - N/A   Clear
9:35 PM 57.4 °F 52.3 °F 83% 29.85 in 10.0 mi West 5.8 mph - N/A   Clear
9:55 PM 55.9 °F 55.2 °F 97% 29.86 in 10.0 mi WNW 5.8 mph - N/A   Clear
10:15 PM 55.4 °F 55.4 °F 100% 29.86 in 10.0 mi WNW 5.8 mph - N/A   Clear
10:35 PM 55.6 °F 55.6 °F 100% 29.86 in 10.0 mi WNW 5.8 mph - N/A   Clear
10:55 PM 54.9 °F 54.9 °F 100% 29.86 in 10.0 mi West 5.8 mph - N/A   Clear
11:15 PM 55.2 °F 55.0 °F 99% 29.85 in 10.0 mi West 5.8 mph - N/A   Clear
11:35 PM 54.5 °F 54.5 °F 100% 29.85 in 10.0 mi West 5.8 mph - N/A   Clear
11:55 PM 54.5 °F 54.5 °F 100% 29.85 in 10.0 mi West 5.8 mph - N/A   Clear